Time;durP1;ratioP1;P1;durP2;ratioP2;P2;SDS_P1;SDS_P2;PMS_P1;PMS_P2;Temp;Humidity;BMP_temperature;BMP_pressure;BME280_temperature;BME280_humidity;BME280_pressure;Samples;Min_cycle;Max_cycle;Signal;HPM_P1;HPM_P2
2023/03/23 00:00:15;;;;;;;;;;;;;;;12.08;100.00;99575.66;5083005;28;20338;-75
2023/03/23 00:02:40;;;;;;;;;;;;;;;12.08;100.00;99573.00;5082759;28;19920;-76
2023/03/23 00:05:07;;;;;;;;;;;;;;;12.12;100.00;99575.22;5078270;28;19926;-76
2023/03/23 00:07:34;;;;;;;;;;;;;;;12.08;100.00;99573.84;5080182;28;19926;-77
2023/03/23 00:10:02;;;;;;;;;;;;;;;12.08;100.00;99573.84;5081333;28;19920;-76
2023/03/23 00:12:32;;;;;;;;;;;;;;;12.00;100.00;99571.13;5080586;28;19973;-75
2023/03/23 00:15:03;;;;;;;;;;;;;;;12.01;100.00;99572.81;5080998;28;19920;-75
2023/03/23 00:17:28;;;;;;;;;;;;;;;11.90;100.00;99573.84;5080329;28;19920;-76
2023/03/23 00:19:54;;;;;;;;;;;;;;;11.85;100.00;99570.81;5084082;28;20430;-75
2023/03/23 00:22:20;;;;;;;;;;;;;;;11.84;100.00;99582.38;5082313;28;20453;-76
2023/03/23 00:24:46;;;;;;;;;;;;;;;11.75;100.00;99580.63;5082180;28;19963;-74
2023/03/23 00:27:12;;;;;;;;;;;;;;;11.68;100.00;99584.81;5080954;28;20368;-74
2023/03/23 00:29:38;;;;;;;;;;;;;;;11.60;100.00;99584.75;5067723;28;20656;-76
2023/03/23 00:32:03;;;;;;;;;;;;;;;11.54;100.00;99585.34;5099121;28;20376;-76
2023/03/23 00:34:32;;;;;;;;;;;;;;;11.50;100.00;99583.97;5062286;28;19966;-74
2023/03/23 00:36:58;;;;;;;;;;;;;;;11.54;100.00;99580.06;5080946;28;19927;-75
2023/03/23 00:39:25;;;;;;;;;;;;;;;11.47;100.00;99584.28;5079509;28;20020;-74
2023/03/23 00:41:51;;;;;;;;;;;;;;;11.39;100.00;99584.16;5097500;28;19962;-75
2023/03/23 00:44:18;;;;;;;;;;;;;;;11.02;100.00;99579.72;5060828;28;19955;-76
2023/03/23 00:46:48;;;;;;;;;;;;;;;11.12;100.00;99581.53;5064460;28;20364;-78
2023/03/23 00:49:19;;;;;;;;;;;;;;;11.27;100.00;99577.41;5060627;28;19987;-76
2023/03/23 00:51:44;;;;;;;;;;;;;;;11.26;100.00;99573.09;5078567;28;20348;-75
2023/03/23 00:54:10;;;;;;;;;;;;;;;11.19;100.00;99574.69;5082883;28;19920;-76
2023/03/23 00:56:36;;;;;;;;;;;;;;;11.13;100.00;99570.00;5063219;28;19932;-76
2023/03/23 00:59:01;;;;;;;;;;;;;;;11.07;100.00;99572.22;5080094;28;19966;-75
2023/03/23 01:01:27;;;;;;;;;;;;;;;11.08;100.00;99568.59;5062034;28;20396;-76
2023/03/23 01:04:00;;;;;;;;;;;;;;;11.11;100.00;99566.66;5081027;28;20408;-75
2023/03/23 01:06:26;;;;;;;;;;;;;;;11.11;100.00;99561.38;5061385;28;19921;-75
2023/03/23 01:08:53;;;;;;;;;;;;;;;11.05;100.00;99558.34;5081214;28;19920;-74
2023/03/23 01:11:19;;;;;;;;;;;;;;;11.09;100.00;99558.88;5078800;28;20015;-76
2023/03/23 01:13:45;;;;;;;;;;;;;;;11.11;100.00;99556.09;5060653;28;20014;-75
2023/03/23 01:16:11;;;;;;;;;;;;;;;10.87;100.00;99549.50;5060794;28;19921;-76
2023/03/23 01:18:37;;;;;;;;;;;;;;;10.67;100.00;99558.44;5060585;28;19966;-76
2023/03/23 01:21:19;;;;;;;;;;;;;;;10.57;100.00;99557.66;5059711;28;19920;-75
2023/03/23 01:23:45;;;;;;;;;;;;;;;10.64;100.00;99553.47;5058815;28;19932;-75
2023/03/23 01:26:12;;;;;;;;;;;;;;;10.67;100.00;99553.19;5061882;28;19920;-75
2023/03/23 01:28:38;;;;;;;;;;;;;;;10.60;100.00;99546.84;5057310;28;19983;-76
2023/03/23 01:31:08;;;;;;;;;;;;;;;10.39;100.00;99548.81;5061863;28;19921;-76
2023/03/23 01:33:35;;;;;;;;;;;;;;;10.49;100.00;99544.34;5057329;28;20000;-76
2023/03/23 01:36:08;;;;;;;;;;;;;;;10.40;100.00;99542.56;5060942;28;19921;-75
2023/03/23 01:38:34;;;;;;;;;;;;;;;10.41;100.00;99541.59;5060384;28;20372;-75
2023/03/23 01:41:00;;;;;;;;;;;;;;;10.51;100.00;99539.75;5062688;28;19921;-75
2023/03/23 01:43:26;;;;;;;;;;;;;;;10.45;100.00;99535.88;5062630;28;19917;-75
2023/03/23 01:45:51;;;;;;;;;;;;;;;10.51;100.00;99537.13;5061432;28;19921;-75
2023/03/23 01:48:20;;;;;;;;;;;;;;;10.41;100.00;99537.16;5065259;28;19920;-75
2023/03/23 01:50:54;;;;;;;;;;;;;;;10.39;100.00;99538.25;5063666;28;19923;-74
2023/03/23 01:53:20;;;;;;;;;;;;;;;10.34;100.00;99535.22;5060860;28;19935;-75
2023/03/23 01:55:50;;;;;;;;;;;;;;;10.44;100.00;99525.47;5065580;28;19978;-75
2023/03/23 01:58:20;;;;;;;;;;;;;;;10.48;100.00;99521.59;5060153;28;19924;-75
2023/03/23 02:00:45;;;;;;;;;;;;;;;10.47;100.00;99526.03;5059867;28;20011;-74
2023/03/23 02:03:13;;;;;;;;;;;;;;;10.60;100.00;99520.44;5064404;28;20010;-77
2023/03/23 02:05:40;;;;;;;;;;;;;;;10.57;100.00;99516.28;5064874;28;19931;-75
2023/03/23 02:08:29;;;;;;;;;;;;;;;10.57;100.00;99520.72;5063951;28;19943;-76
2023/03/23 02:10:55;;;;;;;;;;;;;;;10.47;100.00;99518.13;5064521;28;19965;-76
2023/03/23 02:13:21;;;;;;;;;;;;;;;10.50;100.00;99514.34;5058600;28;19925;-76
2023/03/23 02:15:46;;;;;;;;;;;;;;;10.48;100.00;99521.59;5045505;28;19967;-75
2023/03/23 02:18:12;;;;;;;;;;;;;;;10.54;100.00;99518.38;5057562;28;19921;-74
2023/03/23 02:20:43;;;;;;;;;;;;;;;10.45;100.00;99530.59;5044275;28;19924;-74
2023/03/23 02:23:24;;;;;;;;;;;;;;;10.23;100.00;99525.66;5074595;28;19974;-74
2023/03/23 02:26:08;;;;;;;;;;;;;;;9.90;100.00;99532.16;5074406;28;19924;-75
2023/03/23 02:28:48;;;;;;;;;;;;;;;9.92;100.00;99530.22;5044380;28;19948;-76
2023/03/23 02:31:17;;;;;;;;;;;;;;;10.08;100.00;99521.75;5042749;28;20431;-75
2023/03/23 02:33:50;;;;;;;;;;;;;;;10.08;100.00;99525.22;5073961;28;20388;-76
2023/03/23 02:36:35;;;;;;;;;;;;;;;10.18;100.00;99525.25;5041204;28;19967;-75
2023/03/23 02:39:18;;;;;;;;;;;;;;;10.18;100.00;99531.38;5072791;28;20361;-75
2023/03/23 02:41:53;;;;;;;;;;;;;;;10.10;100.00;99522.44;5039677;28;19921;-75
2023/03/23 02:44:19;;;;;;;;;;;;;;;10.06;100.00;99527.19;5039573;28;20023;-74
2023/03/23 02:46:46;;;;;;;;;;;;;;;10.04;100.00;99529.13;5042526;28;20022;-75
2023/03/23 02:49:14;;;;;;;;;;;;;;;10.06;100.00;99535.09;5039951;28;19975;-76
2023/03/23 02:51:40;;;;;;;;;;;;;;;10.16;100.00;99528.03;5042699;28;20391;-74
2023/03/23 02:54:08;;;;;;;;;;;;;;;10.16;100.00;99533.28;5058259;28;20015;-75
2023/03/23 02:56:34;;;;;;;;;;;;;;;10.16;100.00;99535.94;5022809;28;19975;-74
2023/03/23 02:59:02;;;;;;;;;;;;;;;10.18;100.00;99536.63;5057815;28;19927;-76
2023/03/23 03:01:28;;;;;;;;;;;;;;;10.12;100.00;99526.63;5039893;28;19921;-76
2023/03/23 03:03:57;;;;;;;;;;;;;;;10.16;100.00;99528.03;5055910;28;19971;-74
2023/03/23 03:06:41;;;;;;;;;;;;;;;10.07;100.00;99528.81;5040637;28;20301;-77
2023/03/23 03:09:11;;;;;;;;;;;;;;;10.08;100.00;99527.84;5057951;28;20339;-75
2023/03/23 03:11:40;;;;;;;;;;;;;;;9.99;100.00;99526.06;5040323;28;19929;-77
2023/03/23 03:14:08;;;;;;;;;;;;;;;9.92;100.00;99519.69;5057489;28;19967;-76
2023/03/23 03:16:37;;;;;;;;;;;;;;;10.07;100.00;99523.53;5038679;28;20372;-74
2023/03/23 03:19:06;;;;;;;;;;;;;;;10.07;100.00;99526.19;5041396;28;19975;-74
2023/03/23 03:21:35;;;;;;;;;;;;;;;10.06;100.00;99529.81;5041235;28;19975;-74
2023/03/23 03:24:02;;;;;;;;;;;;;;;10.07;100.00;99528.81;5039540;28;19964;-75
2023/03/23 03:26:31;;;;;;;;;;;;;;;10.07;100.00;99526.19;5040711;28;20008;-77
2023/03/23 03:29:07;;;;;;;;;;;;;;;9.77;100.00;99526.34;5038462;28;20389;-74
2023/03/23 03:31:39;;;;;;;;;;;;;;;9.66;100.00;99537.03;5057081;28;19925;-75
2023/03/23 03:34:05;;;;;;;;;;;;;;;9.75;100.00;99533.56;5038463;28;19925;-75
2023/03/23 03:36:36;;;;;;;;;;;;;;;9.75;100.00;99538.81;5039769;28;20466;-75
2023/03/23 03:39:07;;;;;;;;;;;;;;;9.77;100.00;99534.25;5038917;28;20127;-75
2023/03/23 03:41:33;;;;;;;;;;;;;;;9.78;100.00;99535.91;5039410;28;20391;-74
2023/03/23 03:43:59;;;;;;;;;;;;;;;9.83;100.00;99536.34;5055856;28;19917;-75
2023/03/23 03:46:26;;;;;;;;;;;;;;;9.88;100.00;99534.13;5038192;28;19921;-74
2023/03/23 03:48:53;;;;;;;;;;;;;;;9.92;100.00;99537.31;5040253;28;20288;-76
2023/03/23 03:51:19;;;;;;;;;;;;;;;9.85;100.00;99537.84;5037904;28;20410;-77
2023/03/23 03:53:49;;;;;;;;;;;;;;;9.76;100.00;99546.59;5040716;28;19995;-76
2023/03/23 03:56:14;;;;;;;;;;;;;;;9.71;100.00;99547.97;5038863;28;20380;-75
2023/03/23 03:58:48;;;;;;;;;;;;;;;9.74;100.00;99552.97;5041046;28;19944;-76
2023/03/23 04:01:22;;;;;;;;;;;;;;;9.76;100.00;99545.78;5037254;28;19921;-76
2023/03/23 04:03:48;;;;;;;;;;;;;;;9.72;100.00;99547.81;5042056;28;19921;-74
2023/03/23 04:06:22;;;;;;;;;;;;;;;9.75;100.00;99552.00;5037416;28;19921;-75
2023/03/23 04:08:48;;;;;;;;;;;;;;;9.69;100.00;99550.75;5040445;28;19928;-75
2023/03/23 04:11:14;;;;;;;;;;;;;;;9.69;100.00;99549.91;5037279;28;19940;-74
2023/03/23 04:13:40;;;;;;;;;;;;;;;9.70;100.00;99541.03;5036383;28;19920;-75
2023/03/23 04:16:16;;;;;;;;;;;;;;;9.76;100.00;99551.03;5060343;28;19959;-75
2023/03/23 04:18:44;;;;;;;;;;;;;;;9.76;100.00;99557.16;5097520;28;20164;-74
2023/03/23 04:21:10;;;;;;;;;;;;;;;9.75;100.00;99557.28;5078783;28;19920;-74
2023/03/23 04:23:36;;;;;;;;;;;;;;;9.76;100.00;99553.66;5062697;28;19917;-75
2023/03/23 04:26:03;;;;;;;;;;;;;;;9.83;100.00;99557.44;5061918;28;20011;-76
2023/03/23 04:28:34;;;;;;;;;;;;;;;9.83;100.00;99557.44;5081025;28;19924;-76
2023/03/23 04:31:26;;;;;;;;;;;;;;;9.86;100.00;99555.34;5056482;28;19956;-76
2023/03/23 04:34:01;;;;;;;;;;;;;;;9.92;100.00;99553.94;5064924;28;20380;-76
2023/03/23 04:36:33;;;;;;;;;;;;;;;9.88;100.00;99555.22;5030362;28;19916;-76
2023/03/23 04:39:03;;;;;;;;;;;;;;;9.83;100.00;99562.69;5063431;28;20065;-74
2023/03/23 04:41:29;;;;;;;;;;;;;;;9.74;100.00;99556.44;5061530;28;19920;-75
2023/03/23 04:44:07;;;;;;;;;;;;;;;9.76;100.00;99557.16;5060646;28;19928;-76
2023/03/23 04:46:45;;;;;;;;;;;;;;;9.86;100.00;99551.88;5063452;28;19936;-76
2023/03/23 04:49:11;;;;;;;;;;;;;;;9.83;100.00;99552.16;5059969;28;19927;-76
2023/03/23 04:51:39;;;;;;;;;;;;;;;9.83;100.00;99557.44;5064110;28;19920;-75
2023/03/23 04:54:30;;;;;;;;;;;;;;;9.94;100.00;99557.28;5061760;28;20380;-74
2023/03/23 04:56:59;;;;;;;;;;;;;;;10.00;100.00;99563.81;5061770;28;19920;-77
2023/03/23 04:59:27;;;;;;;;;;;;;;;10.00;100.00;99554.09;5061816;28;20406;-75
2023/03/23 05:02:13;;;;;;;;;;;;;;;9.95;100.00;99561.59;5077353;28;19921;-75
2023/03/23 05:04:40;;;;;;;;;;;;;;;10.06;100.00;99558.81;5046075;28;19920;-74
2023/03/23 05:07:12;;;;;;;;;;;;;;;10.09;100.00;99558.53;5063988;28;19928;-76
2023/03/23 05:09:46;;;;;;;;;;;;;;;10.08;100.00;99546.31;5051179;28;19920;-74
2023/03/23 05:12:12;;;;;;;;;;;;;;;10.02;100.00;99562.69;5060664;28;19963;-75
2023/03/23 05:15:07;;;;;;;;;;;;;;;9.86;100.00;99557.13;5072715;28;19928;-75
2023/03/23 05:17:34;;;;;;;;;;;;;;;9.86;100.00;99567.69;5065562;28;19921;-75
2023/03/23 05:20:06;;;;;;;;;;;;;;;9.85;100.00;99572.13;5064676;28;20288;-75
2023/03/23 05:22:52;;;;;;;;;;;;;;;9.81;100.00;99570.72;5066370;28;19920;-75
2023/03/23 05:25:23;;;;;;;;;;;;;;;9.78;100.00;99564.88;5064249;28;20388;-75
2023/03/23 05:27:58;;;;;;;;;;;;;;;9.56;100.00;99570.41;5065584;28;19924;-74
2023/03/23 05:30:44;;;;;;;;;;;;;;;9.53;100.00;99563.63;5066681;28;20030;-75
2023/03/23 05:33:09;;;;;;;;;;;;;;;9.52;100.00;99572.50;5063742;28;19971;-75
2023/03/23 05:35:48;;;;;;;;;;;;;;;9.59;100.00;99570.16;5066686;28;20303;-76
2023/03/23 05:38:16;;;;;;;;;;;;;;;9.44;100.00;99570.53;5096828;28;20456;-76
2023/03/23 05:40:42;;;;;;;;;;;;;;;9.52;100.00;99563.75;5063051;28;19959;-78
2023/03/23 05:43:14;;;;;;;;;;;;;;;9.56;100.00;99565.97;5067129;28;19931;-78
2023/03/23 05:45:52;;;;;;;;;;;;;;;9.68;100.00;99569.31;5067532;28;19983;-77
2023/03/23 05:48:18;;;;;;;;;;;;;;;9.79;100.00;99574.47;5063079;28;19959;-77
2023/03/23 05:50:54;;;;;;;;;;;;;;;9.82;100.00;99567.13;5083361;28;20446;-77
2023/03/23 05:53:23;;;;;;;;;;;;;;;9.88;100.00;99571.03;5063687;28;20376;-75
2023/03/23 05:55:49;;;;;;;;;;;;;;;9.93;100.00;99571.44;5084349;28;19997;-75
2023/03/23 05:58:22;;;;;;;;;;;;;;;10.06;100.00;99574.63;5081663;28;19920;-75
2023/03/23 06:00:47;;;;;;;;;;;;;;;10.11;100.00;99563.66;5063329;28;19920;-75
2023/03/23 06:03:22;;;;;;;;;;;;;;;10.17;100.00;99561.34;5069746;28;20023;-75
2023/03/23 06:06:11;;;;;;;;;;;;;;;10.20;100.00;99563.69;5082393;28;19955;-75
2023/03/23 06:08:50;;;;;;;;;;;;;;;10.18;100.00;99563.00;5081738;28;19927;-76
2023/03/23 06:11:15;;;;;;;;;;;;;;;10.25;100.00;99569.34;5073069;28;19927;-77
2023/03/23 06:13:53;;;;;;;;;;;;;;;10.25;100.00;99566.72;5063449;28;19925;-80
2023/03/23 06:16:18;;;;;;;;;;;;;;;10.30;100.00;99568.13;5069154;28;20387;-80
2023/03/23 06:18:56;;;;;;;;;;;;;;;10.32;100.00;99568.81;5072519;28;20014;-80
2023/03/23 06:21:42;;;;;;;;;;;;;;;10.32;100.00;99585.47;5080939;28;19928;-78
2023/03/23 06:24:19;;;;;;;;;;;;;;;10.30;100.00;99583.94;5068015;28;20006;-78
2023/03/23 06:26:44;;;;;;;;;;;;;;;10.38;100.00;99584.06;5063306;28;20019;-75
2023/03/23 06:29:16;;;;;;;;;;;;;;;10.40;100.00;99587.41;5056633;28;20015;-76
2023/03/23 06:31:51;;;;;;;;;;;;;;;10.31;100.00;99598.81;5063710;28;19920;-74
2023/03/23 06:34:16;;;;;;;;;;;;;;;10.34;100.00;99603.78;5069770;28;19959;-75
2023/03/23 06:37:01;;;;;;;;;;;;;;;10.31;100.00;99598.81;5084483;28;20280;-77
2023/03/23 06:39:36;;;;;;;;;;;;;;;10.36;100.00;99601.84;5067763;28;19930;-75
2023/03/23 06:42:18;;;;;;;;;;;;;;;10.41;100.00;99602.25;5066059;28;20291;-74
2023/03/23 06:44:48;;;;;;;;;;;;;;;10.32;100.00;99611.00;5069590;28;19923;-77
2023/03/23 06:47:14;;;;;;;;;;;;;;;10.30;100.00;99619.06;5066041;28;19924;-74
2023/03/23 06:49:45;;;;;;;;;;;;;;;10.27;100.00;99614.91;5065544;28;19970;-75
2023/03/23 06:52:26;;;;;;;;;;;;;;;10.20;100.00;99624.34;5088173;28;20026;-75
2023/03/23 06:54:53;;;;;;;;;;;;;;;10.26;100.00;99621.13;5083830;28;20373;-75
2023/03/23 06:57:20;;;;;;;;;;;;;;;10.36;100.00;99612.41;5068884;28;19920;-72
2023/03/23 06:59:46;;;;;;;;;;;;;;;10.46;100.00;99627.25;5046542;28;19974;-74
2023/03/23 07:02:13;;;;;;;;;;;;;;;10.54;100.00;99627.38;5066481;28;19923;-75
2023/03/23 07:04:40;;;;;;;;;;;;;;;10.47;100.00;99630.72;5062533;28;19924;-75
2023/03/23 07:07:10;;;;;;;;;;;;;;;10.42;100.00;99632.94;5090130;28;19931;-74
2023/03/23 07:09:44;;;;;;;;;;;;;;;10.48;100.00;99637.66;5067139;28;19928;-74
2023/03/23 07:12:10;;;;;;;;;;;;;;;10.60;100.00;99641.81;5069546;28;19998;-74
2023/03/23 07:14:41;;;;;;;;;;;;;;;10.59;100.00;99643.63;5070885;28;19970;-74
2023/03/23 07:17:07;;;;;;;;;;;;;;;10.68;100.00;99639.31;5083404;28;19928;-75
2023/03/23 07:19:37;;;;;;;;;;;;;;;10.81;100.00;99642.47;5077306;28;19928;-75
2023/03/23 07:22:03;;;;;;;;;;;;;;;10.78;100.00;99644.59;5082358;28;20391;-75
2023/03/23 07:24:29;;;;;;;;;;;;;;;10.83;100.00;99637.91;5067650;28;19920;-75
2023/03/23 07:27:27;;;;;;;;;;;;;;;10.95;100.00;99642.03;5067698;28;19920;-76
2023/03/23 07:29:57;;;;;;;;;;;;;;;11.13;100.00;99643.94;5067363;28;19923;-76
2023/03/23 07:32:24;;;;;;;;;;;;;;;11.27;100.00;99646.09;5065730;28;19924;-76
2023/03/23 07:34:50;;;;;;;;;;;;;;;11.42;100.00;99649.94;5063354;28;20010;-76
2023/03/23 07:37:32;;;;;;;;;;;;;;;11.48;100.00;99652.00;5071580;28;19920;-76
2023/03/23 07:39:57;;;;;;;;;;;;;;;11.58;100.00;99655.41;5067016;28;19924;-76
2023/03/23 07:42:23;;;;;;;;;;;;;;;11.70;100.00;99659.53;5097027;28;20430;-76
2023/03/23 07:44:55;;;;;;;;;;;;;;;11.83;100.00;99649.47;5065431;28;19925;-76
2023/03/23 07:47:22;;;;;;;;;;;;;;;11.96;100.00;99658.88;5085333;28;19924;-76
2023/03/23 07:49:48;;;;;;;;;;;;;;;12.07;100.00;99661.31;5082741;28;20272;-76
2023/03/23 07:52:23;;;;;;;;;;;;;;;12.19;100.00;99660.09;5066571;28;20000;-76
2023/03/23 07:54:49;;;;;;;;;;;;;;;12.26;100.00;99666.44;5065752;28;19927;-76
2023/03/23 07:57:37;;;;;;;;;;;;;;;12.34;100.00;99674.47;5081945;28;19928;-76
2023/03/23 08:00:40;;;;;;;;;;;;;;;12.42;100.00;99671.06;5064139;28;20056;-76
2023/03/23 08:02:57;;;;;;;;;;;;;;;12.51;100.00;99670.13;5064208;28;19927;-76
2023/03/23 08:05:28;;;;;;;;;;;;;;;12.57;100.00;99677.47;5088016;28;19920;-76
2023/03/23 08:08:25;;;;;;;;;;;;;;;12.60;100.00;99667.44;5054212;28;19920;-76
2023/03/23 08:10:56;;;;;;;;;;;;;;;12.59;100.00;99668.41;5087063;28;19921;-76
2023/03/23 08:13:42;;;;;;;;;;;;;;;12.57;100.00;99670.38;5067698;28;19920;-77
2023/03/23 08:16:13;;;;;;;;;;;;;;;12.66;100.00;99674.72;5078195;28;19920;-77
2023/03/23 08:18:59;;;;;;;;;;;;;;;12.71;100.00;99667.19;5064729;28;20018;-77
2023/03/23 08:21:47;;;;;;;;;;;;;;;12.75;100.00;99672.16;5079540;28;19974;-78
2023/03/23 08:24:21;;;;;;;;;;;;;;;12.86;100.00;99680.69;5078834;28;19924;-76
2023/03/23 08:27:15;;;;;;;;;;;;;;;12.96;100.00;99672.66;5068716;28;20284;-77
2023/03/23 08:29:57;;;;;;;;;;;;;;;13.03;100.00;99671.03;5083550;28;20326;-77
2023/03/23 08:32:55;;;;;;;;;;;;;;;12.96;100.00;99680.63;5063195;28;19924;-76
2023/03/23 08:35:43;;;;;;;;;;;;;;;13.08;100.00;99684.63;5065728;28;20403;-77
2023/03/23 08:38:28;;;;;;;;;;;;;;;13.17;100.00;99689.06;5051219;28;19921;-78
2023/03/23 08:41:12;;;;;;;;;;;;;;;13.24;100.00;99684.81;5084639;28;19926;-77
2023/03/23 08:44:10;;;;;;;;;;;;;;;13.32;100.00;99679.53;5061884;28;20328;-76
2023/03/23 08:47:00;;;;;;;;;;;;;;;13.36;100.00;99677.41;5066791;28;19935;-76
2023/03/23 08:49:46;;;;;;;;;;;;;;;13.46;100.00;99678.94;5058267;28;20296;-77
2023/03/23 08:52:31;;;;;;;;;;;;;;;13.51;100.00;99679.31;5051787;28;19920;-78
2023/03/23 08:55:24;;;;;;;;;;;;;;;13.51;100.00;99684.59;5076691;28;20057;-77
2023/03/23 08:58:03;;;;;;;;;;;;;;;13.60;100.00;99679.34;5060763;28;20019;-77
2023/03/23 09:00:47;;;;;;;;;;;;;;;13.75;100.00;99672.44;5082890;28;19931;-77
2023/03/23 09:03:39;;;;;;;;;;;;;;;13.86;100.00;99680.09;5061413;28;19962;-76
2023/03/23 09:06:35;;;;;;;;;;;;;;;13.91;100.00;99677.78;4994160;28;19922;-78
2023/03/23 09:09:01;;;;;;;;;;;;;;;13.98;100.00;99673.50;5084360;28;19920;-76
2023/03/23 09:11:26;;;;;;;;;;;;;;;13.98;100.00;99681.47;5079618;28;20015;-77
2023/03/23 09:13:52;;;;;;;;;;;;;;;14.03;100.00;99681.81;5084258;28;20007;-76
2023/03/23 09:16:19;;;;;;;;;;;;;;;14.09;100.00;99691.78;5080499;28;21371;-76
2023/03/23 09:18:44;;;;;;;;;;;;;;;14.23;100.00;99685.03;5083820;28;19928;-77
2023/03/23 09:21:10;;;;;;;;;;;;;;;14.29;100.00;99684.38;5062739;28;19921;-74
2023/03/23 09:23:35;;;;;;;;;;;;;;;14.41;100.00;99690.22;5083292;28;19920;-75
2023/03/23 09:26:01;;;;;;;;;;;;;;;14.58;100.00;99678.63;5086221;28;20329;-77
2023/03/23 09:28:26;;;;;;;;;;;;;;;14.63;100.00;99673.66;5086256;28;20315;-77
2023/03/23 09:30:56;;;;;;;;;;;;;;;14.69;100.00;99684.44;5083406;28;19920;-75
2023/03/23 09:33:21;;;;;;;;;;;;;;;14.82;100.00;99689.25;5067700;28;20290;-75
2023/03/23 09:35:46;;;;;;;;;;;;;;;14.91;100.00;99687.41;5084636;28;19920;-75
2023/03/23 09:38:12;;;;;;;;;;;;;;;14.95;100.00;99686.94;5084920;28;19931;-76
2023/03/23 09:40:41;;;;;;;;;;;;;;;14.97;100.00;99687.56;5081299;28;19950;-76
2023/03/23 09:43:32;;;;;;;;;;;;;;;15.06;100.00;99686.59;5082001;28;20013;-75
2023/03/23 09:46:13;;;;;;;;;;;;;;;15.18;100.00;99678.25;5085326;28;19920;-75
2023/03/23 09:48:48;;;;;;;;;;;;;;;15.28;100.00;99679.72;5066100;28;19924;-75
2023/03/23 09:51:16;;;;;;;;;;;;;;;15.40;100.00;99672.22;5080634;28;20299;-76
2023/03/23 09:53:43;;;;;;;;;;;;;;;15.50;100.00;99673.69;5085658;28;20000;-75
2023/03/23 09:56:11;;;;;;;;;;;;;;;15.47;100.00;99667.88;5065143;28;19932;-76
2023/03/23 09:59:12;;;;;;;;;;;;;;;15.52;100.00;99674.38;5058630;28;20042;-76
2023/03/23 10:01:58;;;;;;;;;;;;;;;15.52;100.00;99673.53;5011607;28;19995;-76
2023/03/23 10:04:28;;;;;;;;;;;;;;;15.64;100.00;99664.19;4998032;28;19949;-76
2023/03/23 10:06:58;;;;;;;;;;;;;;;15.69;100.00;99651.19;5013989;28;20488;-76
2023/03/23 10:09:24;;;;;;;;;;;;;;;15.73;100.00;99647.19;5008926;28;19925;-76
2023/03/23 10:12:16;;;;;;;;;;;;;;;15.81;100.00;99648.97;5009696;28;20016;-77
2023/03/23 10:14:41;;;;;;;;;;;;;;;15.89;100.00;99649.78;5002894;28;20088;-77
2023/03/23 10:17:13;;;;;;;;;;;;;;;15.95;100.00;99643.75;5008582;28;20531;-76
2023/03/23 10:19:38;;;;;;;;;;;;;;;16.04;100.00;99649.03;5009565;28;19933;-77
2023/03/23 10:22:06;;;;;;;;;;;;;;;16.16;100.00;99647.63;5009838;28;20327;-76
2023/03/23 10:24:52;;;;;;;;;;;;;;;16.22;100.00;99641.59;4993198;28;19922;-77
2023/03/23 10:27:21;;;;;;;;;;;;;;;16.26;100.00;99637.56;5007066;28;19976;-77
2023/03/23 10:29:53;;;;;;;;;;;;;;;16.33;100.00;99639.34;5000023;28;20304;-76
2023/03/23 10:32:22;;;;;;;;;;;;;;;16.41;100.00;99645.63;5005800;28;20004;-76
2023/03/23 10:34:52;;;;;;;;;;;;;;;16.53;100.00;99634.38;5026300;28;19920;-77
2023/03/23 10:37:36;;;;;;;;;;;;;;;16.56;100.00;99639.34;5065667;28;20290;-76
2023/03/23 10:40:09;;;;;;;;;;;;;;;16.62;100.00;99638.66;5081925;28;19981;-75
2023/03/23 10:42:35;;;;;;;;;;;;;;;16.65;100.00;99640.97;5080898;28;19920;-76
2023/03/23 10:45:11;;;;;;;;;;;;;;;16.69;100.00;99636.94;5082179;28;20396;-75
2023/03/23 10:47:38;;;;;;;;;;;;;;;16.77;100.00;99634.19;5078565;28;19927;-76
2023/03/23 10:50:05;;;;;;;;;;;;;;;16.79;99.79;99644.66;5078639;28;19928;-75
2023/03/23 10:52:31;;;;;;;;;;;;;;;16.84;98.67;99631.66;5082931;28;19930;-77
2023/03/23 10:54:57;;;;;;;;;;;;;;;16.90;98.78;99624.75;5083602;28;19920;-78
2023/03/23 10:57:24;;;;;;;;;;;;;;;16.92;96.54;99628.06;5076744;28;19977;-78
2023/03/23 10:59:50;;;;;;;;;;;;;;;16.97;96.32;99625.66;5089568;28;20716;-75
2023/03/23 11:02:17;;;;;;;;;;;;;;;17.05;96.06;99618.44;5064845;28;20002;-76
2023/03/23 11:04:58;;;;;;;;;;;;;;;17.15;96.38;99623.47;5082631;28;19920;-77
2023/03/23 11:07:26;;;;;;;;;;;;;;;17.29;96.30;99630.66;5096071;28;20284;-77
2023/03/23 11:09:53;;;;;;;;;;;;;;;17.40;97.18;99627.53;5087154;28;19920;-77
2023/03/23 11:12:19;;;;;;;;;;;;;;;17.48;92.68;99624.78;5078334;28;19930;-75
2023/03/23 11:14:44;;;;;;;;;;;;;;;17.52;91.70;99623.38;5086120;28;19993;-76
2023/03/23 11:17:28;;;;;;;;;;;;;;;17.63;89.31;99615.94;5082423;28;20380;-76
2023/03/23 11:19:57;;;;;;;;;;;;;;;17.66;88.03;99611.09;5083834;28;19927;-76
2023/03/23 11:22:27;;;;;;;;;;;;;;;17.72;89.45;99614.84;5084514;28;19920;-75
2023/03/23 11:24:53;;;;;;;;;;;;;;;17.82;89.13;99610.03;5082202;28;19924;-76
2023/03/23 11:27:20;;;;;;;;;;;;;;;17.91;89.34;99603.53;5086385;28;19973;-76
2023/03/23 11:29:53;;;;;;;;;;;;;;;18.00;89.27;99602.44;5079967;28;20380;-75
2023/03/23 11:32:22;;;;;;;;;;;;;;;18.11;89.08;99603.78;5081617;28;19924;-75
2023/03/23 11:34:49;;;;;;;;;;;;;;;18.22;88.42;99601.41;5065575;28;20237;-75
2023/03/23 11:37:17;;;;;;;;;;;;;;;18.29;85.39;99602.31;5086673;28;20012;-74
2023/03/23 11:39:48;;;;;;;;;;;;;;;18.36;85.39;99600.53;5068555;28;19924;-74
2023/03/23 11:42:19;;;;;;;;;;;;;;;18.36;83.27;99591.69;5082664;28;19931;-77
2023/03/23 11:44:45;;;;;;;;;;;;;;;18.36;82.82;99597.03;5085895;28;20368;-75
2023/03/23 11:47:29;;;;;;;;;;;;;;;18.41;83.04;99598.13;5080868;28;20291;-76
2023/03/23 11:50:00;;;;;;;;;;;;;;;18.62;82.28;99585.75;5081717;28;19941;-76
2023/03/23 11:52:37;;;;;;;;;;;;;;;18.78;82.65;99585.50;5083631;28;19927;-76
2023/03/23 11:55:13;;;;;;;;;;;;;;;19.01;81.70;99586.06;5065585;28;19924;-76
2023/03/23 11:57:38;;;;;;;;;;;;;;;19.20;81.15;99577.31;5079380;28;19944;-76
2023/03/23 12:00:14;;;;;;;;;;;;;;;19.38;79.43;99576.00;5078987;28;19920;-76
2023/03/23 12:02:46;;;;;;;;;;;;;;;19.53;77.37;99580.19;5081804;28;19928;-77
2023/03/23 12:05:43;;;;;;;;;;;;;;;19.57;75.40;99565.38;5065583;28;19927;-76
2023/03/23 12:08:17;;;;;;;;;;;;;;;19.64;74.67;99565.41;5086158;28;19924;-77
2023/03/23 12:10:47;;;;;;;;;;;;;;;19.71;74.66;99562.75;5067228;28;19927;-77
2023/03/23 12:13:31;;;;;;;;;;;;;;;19.81;74.82;99555.97;5081758;28;20321;-78
2023/03/23 12:16:02;;;;;;;;;;;;;;;19.94;74.29;99547.97;5083065;28;19970;-78
2023/03/23 12:18:40;;;;;;;;;;;;;;;20.07;73.37;99554.41;5083849;28;20653;-77
2023/03/23 12:21:15;;;;;;;;;;;;;;;20.19;72.97;99547.41;5082414;28;20273;-76
2023/03/23 12:23:59;;;;;;;;;;;;;;;20.34;73.71;99545.38;5086877;28;19966;-76
2023/03/23 12:26:37;;;;;;;;;;;;;;;20.45;71.34;99542.06;5082010;28;19961;-77
2023/03/23 12:29:06;;;;;;;;;;;;;;;20.45;70.14;99531.34;5085747;28;19928;-77
2023/03/23 12:31:46;;;;;;;;;;;;;;;20.54;71.19;99540.03;5081768;28;19920;-75
2023/03/23 12:34:21;;;;;;;;;;;;;;;20.63;69.37;99534.22;5081686;28;20443;-76
2023/03/23 12:37:06;;;;;;;;;;;;;;;20.73;70.81;99528.47;5082268;28;19927;-75
2023/03/23 12:39:50;;;;;;;;;;;;;;;20.87;69.46;99530.06;5083447;28;19924;-78
2023/03/23 12:42:22;;;;;;;;;;;;;;;20.92;66.92;99532.13;5066896;28;19921;-77
2023/03/23 12:44:52;;;;;;;;;;;;;;;20.96;67.67;99528.00;5081642;28;20011;-77
2023/03/23 12:47:41;;;;;;;;;;;;;;;21.09;67.35;99527.94;5079177;28;19920;-76
2023/03/23 12:50:39;;;;;;;;;;;;;;;21.18;66.78;99522.19;5064679;28;19926;-77
2023/03/23 12:53:23;;;;;;;;;;;;;;;21.24;65.92;99520.50;5048300;28;19936;-78
2023/03/23 12:55:54;;;;;;;;;;;;;;;21.36;65.60;99505.38;5084240;28;20026;-77
2023/03/23 12:58:26;;;;;;;;;;;;;;;21.53;65.70;99497.66;5081172;28;19927;-76
2023/03/23 13:00:58;;;;;;;;;;;;;;;21.61;64.76;99490.19;5081250;28;20023;-76
2023/03/23 13:03:45;;;;;;;;;;;;;;;21.70;64.11;99493.44;5081083;28;19923;-76
2023/03/23 13:06:19;;;;;;;;;;;;;;;21.79;63.43;99492.16;5084680;28;19920;-77